sensor_id;sensor_type;location;lat;lon;timestamp;P1;durP1;ratioP1;P2;durP2;ratioP2
16181;SDS011;8197;51.664;7.114;2024-03-23T00:52:49;31.13;;;4.20;;
16181;SDS011;8197;51.664;7.114;2024-03-23T00:57:51;32.00;;;4.73;;
16181;SDS011;8197;51.664;7.114;2024-03-23T01:02:54;29.73;;;4.57;;
16181;SDS011;8197;51.664;7.114;2024-03-23T01:07:57;24.93;;;4.03;;
16181;SDS011;8197;51.664;7.114;2024-03-23T01:12:59;28.47;;;3.97;;
16181;SDS011;8197;51.664;7.114;2024-03-23T01:18:01;29.60;;;4.10;;
16181;SDS011;8197;51.664;7.114;2024-03-23T01:23:05;38.60;;;4.70;;
16181;SDS011;8197;51.664;7.114;2024-03-23T01:28:07;29.63;;;4.03;;
16181;SDS011;8197;51.664;7.114;2024-03-23T01:33:09;29.50;;;3.90;;
16181;SDS011;8197;51.664;7.114;2024-03-23T01:38:13;30.10;;;4.63;;
16181;SDS011;8197;51.664;7.114;2024-03-23T01:43:15;24.70;;;3.67;;
16181;SDS011;8197;51.664;7.114;2024-03-23T01:48:17;28.30;;;4.00;;
16181;SDS011;8197;51.664;7.114;2024-03-23T01:53:22;25.70;;;3.53;;
16181;SDS011;8197;51.664;7.114;2024-03-23T01:58:24;24.70;;;4.23;;
16181;SDS011;8197;51.664;7.114;2024-03-23T02:03:26;28.13;;;4.17;;
16181;SDS011;8197;51.664;7.114;2024-03-23T02:08:30;31.27;;;4.27;;
16181;SDS011;8197;51.664;7.114;2024-03-23T02:13:33;20.33;;;3.50;;
16181;SDS011;8197;51.664;7.114;2024-03-23T02:18:35;22.57;;;4.10;;
16181;SDS011;8197;51.664;7.114;2024-03-23T02:23:39;25.23;;;3.30;;
16181;SDS011;8197;51.664;7.114;2024-03-23T02:28:41;25.27;;;3.53;;
16181;SDS011;8197;51.664;7.114;2024-03-23T02:33:43;25.77;;;3.57;;
16181;SDS011;8197;51.664;7.114;2024-03-23T02:38:46;28.90;;;3.13;;
16181;SDS011;8197;51.664;7.114;2024-03-23T02:43:48;23.40;;;3.03;;
16181;SDS011;8197;51.664;7.114;2024-03-23T02:49:04;23.73;;;2.90;;
16181;SDS011;8197;51.664;7.114;2024-03-23T02:54:08;22.20;;;3.30;;
16181;SDS011;8197;51.664;7.114;2024-03-23T02:59:10;23.43;;;3.20;;
16181;SDS011;8197;51.664;7.114;2024-03-23T03:04:12;18.07;;;2.33;;
16181;SDS011;8197;51.664;7.114;2024-03-23T03:09:15;22.30;;;3.10;;
16181;SDS011;8197;51.664;7.114;2024-03-23T03:14:17;22.27;;;2.60;;
16181;SDS011;8197;51.664;7.114;2024-03-23T03:19:20;22.47;;;3.10;;
16181;SDS011;8197;51.664;7.114;2024-03-23T03:24:23;25.30;;;2.27;;
16181;SDS011;8197;51.664;7.114;2024-03-23T03:29:25;20.53;;;2.50;;
16181;SDS011;8197;51.664;7.114;2024-03-23T03:34:34;34.30;;;2.73;;
16181;SDS011;8197;51.664;7.114;2024-03-23T03:39:37;19.13;;;2.40;;
16181;SDS011;8197;51.664;7.114;2024-03-23T03:44:40;27.60;;;3.23;;
16181;SDS011;8197;51.664;7.114;2024-03-23T03:49:42;21.87;;;2.70;;
16181;SDS011;8197;51.664;7.114;2024-03-23T03:54:46;23.90;;;2.40;;
16181;SDS011;8197;51.664;7.114;2024-03-23T03:59:48;26.37;;;2.50;;
16181;SDS011;8197;51.664;7.114;2024-03-23T04:04:50;20.00;;;2.40;;
16181;SDS011;8197;51.664;7.114;2024-03-23T04:09:53;20.20;;;2.70;;
16181;SDS011;8197;51.664;7.114;2024-03-23T04:14:55;29.77;;;3.20;;
16181;SDS011;8197;51.664;7.114;2024-03-23T04:19:57;22.37;;;3.00;;
16181;SDS011;8197;51.664;7.114;2024-03-23T04:25:02;18.57;;;1.80;;
16181;SDS011;8197;51.664;7.114;2024-03-23T04:30:07;19.70;;;1.90;;
16181;SDS011;8197;51.664;7.114;2024-03-23T04:35:11;22.00;;;3.23;;
16181;SDS011;8197;51.664;7.114;2024-03-23T04:40:14;18.50;;;2.40;;
16181;SDS011;8197;51.664;7.114;2024-03-23T04:45:17;25.10;;;3.40;;
16181;SDS011;8197;51.664;7.114;2024-03-23T04:50:19;22.40;;;3.10;;
16181;SDS011;8197;51.664;7.114;2024-03-23T04:55:22;27.00;;;3.47;;
16181;SDS011;8197;51.664;7.114;2024-03-23T05:00:24;21.07;;;2.97;;
16181;SDS011;8197;51.664;7.114;2024-03-23T05:05:27;31.13;;;3.10;;
16181;SDS011;8197;51.664;7.114;2024-03-23T05:10:30;24.47;;;2.80;;
16181;SDS011;8197;51.664;7.114;2024-03-23T05:15:33;26.07;;;4.07;;
16181;SDS011;8197;51.664;7.114;2024-03-23T05:20:35;24.00;;;4.67;;
16181;SDS011;8197;51.664;7.114;2024-03-23T05:25:38;23.83;;;3.80;;
16181;SDS011;8197;51.664;7.114;2024-03-23T05:30:40;31.77;;;5.27;;
16181;SDS011;8197;51.664;7.114;2024-03-23T05:35:42;22.33;;;4.00;;
16181;SDS011;8197;51.664;7.114;2024-03-23T05:40:53;32.23;;;4.77;;
16181;SDS011;8197;51.664;7.114;2024-03-23T05:45:55;24.17;;;4.40;;
16181;SDS011;8197;51.664;7.114;2024-03-23T05:50:58;25.23;;;5.23;;
16181;SDS011;8197;51.664;7.114;2024-03-23T05:56:02;24.83;;;4.57;;
16181;SDS011;8197;51.664;7.114;2024-03-23T06:01:05;25.77;;;5.27;;
16181;SDS011;8197;51.664;7.114;2024-03-23T06:06:07;34.03;;;6.67;;
16181;SDS011;8197;51.664;7.114;2024-03-23T06:11:13;26.90;;;5.40;;
16181;SDS011;8197;51.664;7.114;2024-03-23T06:16:15;33.07;;;6.90;;
16181;SDS011;8197;51.664;7.114;2024-03-23T06:21:19;24.37;;;6.10;;
16181;SDS011;8197;51.664;7.114;2024-03-23T06:26:25;34.73;;;7.03;;
16181;SDS011;8197;51.664;7.114;2024-03-23T06:31:27;37.90;;;8.43;;
16181;SDS011;8197;51.664;7.114;2024-03-23T06:36:29;40.23;;;9.63;;
16181;SDS011;8197;51.664;7.114;2024-03-23T06:41:33;38.00;;;9.63;;
16181;SDS011;8197;51.664;7.114;2024-03-23T06:46:35;28.70;;;8.00;;
16181;SDS011;8197;51.664;7.114;2024-03-23T06:51:37;38.03;;;8.83;;
16181;SDS011;8197;51.664;7.114;2024-03-23T06:56:41;32.70;;;7.03;;
16181;SDS011;8197;51.664;7.114;2024-03-23T07:01:43;31.67;;;8.97;;
16181;SDS011;8197;51.664;7.114;2024-03-23T07:06:45;33.73;;;7.63;;
16181;SDS011;8197;51.664;7.114;2024-03-23T07:11:49;28.40;;;6.80;;
16181;SDS011;8197;51.664;7.114;2024-03-23T07:16:51;34.30;;;7.60;;
16181;SDS011;8197;51.664;7.114;2024-03-23T07:21:53;33.07;;;5.33;;
16181;SDS011;8197;51.664;7.114;2024-03-23T07:26:57;23.97;;;4.50;;
16181;SDS011;8197;51.664;7.114;2024-03-23T07:31:59;27.67;;;5.63;;
16181;SDS011;8197;51.664;7.114;2024-03-23T07:37:01;35.87;;;5.27;;
16181;SDS011;8197;51.664;7.114;2024-03-23T07:42:05;22.80;;;3.83;;
16181;SDS011;8197;51.664;7.114;2024-03-23T07:47:07;24.80;;;3.77;;
16181;SDS011;8197;51.664;7.114;2024-03-23T07:52:10;29.17;;;5.57;;
16181;SDS011;8197;51.664;7.114;2024-03-23T07:57:33;26.37;;;4.30;;
16181;SDS011;8197;51.664;7.114;2024-03-23T08:02:35;18.17;;;2.90;;
16181;SDS011;8197;51.664;7.114;2024-03-23T08:07:37;30.60;;;4.67;;
16181;SDS011;8197;51.664;7.114;2024-03-23T08:12:41;22.40;;;3.77;;
16181;SDS011;8197;51.664;7.114;2024-03-23T08:17:42;20.73;;;3.17;;
16181;SDS011;8197;51.664;7.114;2024-03-23T08:22:44;24.33;;;3.70;;
16181;SDS011;8197;51.664;7.114;2024-03-23T08:27:48;34.03;;;4.90;;
16181;SDS011;8197;51.664;7.114;2024-03-23T08:32:50;30.23;;;5.43;;
16181;SDS011;8197;51.664;7.114;2024-03-23T08:37:52;26.60;;;3.90;;
16181;SDS011;8197;51.664;7.114;2024-03-23T08:42:55;23.40;;;4.80;;
16181;SDS011;8197;51.664;7.114;2024-03-23T08:47:57;38.73;;;5.80;;
16181;SDS011;8197;51.664;7.114;2024-03-23T08:52:59;18.93;;;3.20;;
16181;SDS011;8197;51.664;7.114;2024-03-23T08:58:03;21.87;;;4.20;;
16181;SDS011;8197;51.664;7.114;2024-03-23T09:03:08;23.27;;;4.70;;
16181;SDS011;8197;51.664;7.114;2024-03-23T09:08:10;28.10;;;4.80;;
16181;SDS011;8197;51.664;7.114;2024-03-23T09:13:14;22.87;;;3.80;;
16181;SDS011;8197;51.664;7.114;2024-03-23T09:18:16;26.00;;;4.53;;
16181;SDS011;8197;51.664;7.114;2024-03-23T09:23:19;24.63;;;3.50;;
16181;SDS011;8197;51.664;7.114;2024-03-23T09:28:22;22.10;;;3.77;;
16181;SDS011;8197;51.664;7.114;2024-03-23T09:33:24;23.83;;;2.40;;
16181;SDS011;8197;51.664;7.114;2024-03-23T09:38:26;23.50;;;3.30;;
16181;SDS011;8197;51.664;7.114;2024-03-23T09:43:29;20.67;;;3.03;;
16181;SDS011;8197;51.664;7.114;2024-03-23T09:48:32;18.40;;;3.07;;
16181;SDS011;8197;51.664;7.114;2024-03-23T09:53:34;19.83;;;2.93;;
16181;SDS011;8197;51.664;7.114;2024-03-23T09:58:38;23.37;;;1.90;;
16181;SDS011;8197;51.664;7.114;2024-03-23T10:03:43;20.37;;;1.90;;
16181;SDS011;8197;51.664;7.114;2024-03-23T10:08:45;25.73;;;2.43;;
16181;SDS011;8197;51.664;7.114;2024-03-23T10:13:49;22.20;;;2.43;;
16181;SDS011;8197;51.664;7.114;2024-03-23T10:18:51;18.90;;;2.60;;
16181;SDS011;8197;51.664;7.114;2024-03-23T10:23:53;20.37;;;2.43;;
16181;SDS011;8197;51.664;7.114;2024-03-23T10:28:57;27.37;;;2.70;;
16181;SDS011;8197;51.664;7.114;2024-03-23T10:34:02;17.60;;;2.17;;
16181;SDS011;8197;51.664;7.114;2024-03-23T10:39:04;20.90;;;2.10;;
16181;SDS011;8197;51.664;7.114;2024-03-23T10:44:09;14.67;;;1.70;;
16181;SDS011;8197;51.664;7.114;2024-03-23T10:49:13;17.60;;;2.10;;
16181;SDS011;8197;51.664;7.114;2024-03-23T10:54:14;39.40;;;4.10;;
16181;SDS011;8197;51.664;7.114;2024-03-23T10:59:18;18.13;;;1.90;;
16181;SDS011;8197;51.664;7.114;2024-03-23T11:04:30;18.87;;;1.83;;
16181;SDS011;8197;51.664;7.114;2024-03-23T11:09:39;13.30;;;1.63;;
16181;SDS011;8197;51.664;7.114;2024-03-23T11:14:46;14.53;;;1.60;;
16181;SDS011;8197;51.664;7.114;2024-03-23T11:19:53;11.97;;;1.30;;
16181;SDS011;8197;51.664;7.114;2024-03-23T11:24:56;13.30;;;1.17;;
16181;SDS011;8197;51.664;7.114;2024-03-23T11:30:10;13.37;;;1.40;;
16181;SDS011;8197;51.664;7.114;2024-03-23T11:35:28;11.53;;;0.70;;
16181;SDS011;8197;51.664;7.114;2024-03-23T11:40:33;14.50;;;1.50;;
16181;SDS011;8197;51.664;7.114;2024-03-23T11:45:38;14.10;;;1.73;;
16181;SDS011;8197;51.664;7.114;2024-03-23T11:50:42;14.77;;;1.10;;
16181;SDS011;8197;51.664;7.114;2024-03-23T11:55:46;19.83;;;1.57;;
16181;SDS011;8197;51.664;7.114;2024-03-23T12:00:51;18.00;;;1.60;;
16181;SDS011;8197;51.664;7.114;2024-03-23T12:05:54;19.00;;;2.20;;
16181;SDS011;8197;51.664;7.114;2024-03-23T12:11:04;13.50;;;1.40;;
16181;SDS011;8197;51.664;7.114;2024-03-23T12:16:12;18.30;;;2.53;;
16181;SDS011;8197;51.664;7.114;2024-03-23T12:21:15;16.13;;;1.93;;
16181;SDS011;8197;51.664;7.114;2024-03-23T12:26:17;20.10;;;2.10;;
16181;SDS011;8197;51.664;7.114;2024-03-23T12:31:21;27.57;;;1.80;;
16181;SDS011;8197;51.664;7.114;2024-03-23T12:36:23;17.90;;;2.17;;
16181;SDS011;8197;51.664;7.114;2024-03-23T12:41:25;17.03;;;2.33;;
16181;SDS011;8197;51.664;7.114;2024-03-23T12:46:28;19.53;;;1.80;;
16181;SDS011;8197;51.664;7.114;2024-03-23T12:51:30;21.80;;;2.20;;
16181;SDS011;8197;51.664;7.114;2024-03-23T12:56:32;17.93;;;1.40;;
16181;SDS011;8197;51.664;7.114;2024-03-23T13:01:35;12.73;;;1.13;;
16181;SDS011;8197;51.664;7.114;2024-03-23T13:06:37;16.03;;;2.17;;
16181;SDS011;8197;51.664;7.114;2024-03-23T13:11:40;15.37;;;1.80;;
16181;SDS011;8197;51.664;7.114;2024-03-23T13:16:43;17.03;;;1.87;;
16181;SDS011;8197;51.664;7.114;2024-03-23T13:21:45;15.13;;;1.33;;
16181;SDS011;8197;51.664;7.114;2024-03-23T13:26:47;15.00;;;1.23;;
16181;SDS011;8197;51.664;7.114;2024-03-23T13:31:52;16.40;;;1.60;;
16181;SDS011;8197;51.664;7.114;2024-03-23T13:36:54;15.60;;;1.40;;
16181;SDS011;8197;51.664;7.114;2024-03-23T13:41:56;17.97;;;1.80;;
16181;SDS011;8197;51.664;7.114;2024-03-23T13:47:00;14.67;;;1.67;;
16181;SDS011;8197;51.664;7.114;2024-03-23T13:52:02;19.40;;;1.73;;
16181;SDS011;8197;51.664;7.114;2024-03-23T13:57:04;17.07;;;1.97;;
16181;SDS011;8197;51.664;7.114;2024-03-23T14:02:08;16.00;;;1.83;;
16181;SDS011;8197;51.664;7.114;2024-03-23T14:07:11;13.90;;;1.63;;
16181;SDS011;8197;51.664;7.114;2024-03-23T14:12:17;17.57;;;2.20;;
16181;SDS011;8197;51.664;7.114;2024-03-23T14:17:20;13.60;;;1.20;;
16181;SDS011;8197;51.664;7.114;2024-03-23T14:22:22;12.70;;;1.37;;
16181;SDS011;8197;51.664;7.114;2024-03-23T14:27:24;14.70;;;1.37;;
16181;SDS011;8197;51.664;7.114;2024-03-23T14:32:28;19.13;;;1.80;;
16181;SDS011;8197;51.664;7.114;2024-03-23T14:37:31;25.07;;;1.43;;
16181;SDS011;8197;51.664;7.114;2024-03-23T14:42:33;14.13;;;1.53;;
16181;SDS011;8197;51.664;7.114;2024-03-23T14:47:37;23.07;;;2.17;;
16181;SDS011;8197;51.664;7.114;2024-03-23T14:52:39;14.20;;;1.70;;
16181;SDS011;8197;51.664;7.114;2024-03-23T14:57:41;15.50;;;1.47;;
16181;SDS011;8197;51.664;7.114;2024-03-23T15:02:44;14.57;;;1.30;;
16181;SDS011;8197;51.664;7.114;2024-03-23T15:07:47;14.53;;;1.40;;
16181;SDS011;8197;51.664;7.114;2024-03-23T15:12:49;13.87;;;1.43;;
16181;SDS011;8197;51.664;7.114;2024-03-23T15:17:52;12.17;;;1.30;;
16181;SDS011;8197;51.664;7.114;2024-03-23T15:22:54;17.20;;;1.30;;
16181;SDS011;8197;51.664;7.114;2024-03-23T15:28:08;16.73;;;1.30;;
16181;SDS011;8197;51.664;7.114;2024-03-23T15:33:11;14.63;;;1.60;;
16181;SDS011;8197;51.664;7.114;2024-03-23T15:38:16;18.10;;;1.70;;
16181;SDS011;8197;51.664;7.114;2024-03-23T15:43:19;15.23;;;1.23;;
16181;SDS011;8197;51.664;7.114;2024-03-23T15:48:22;15.10;;;1.30;;
16181;SDS011;8197;51.664;7.114;2024-03-23T15:53:26;16.90;;;1.90;;
16181;SDS011;8197;51.664;7.114;2024-03-23T15:58:30;19.03;;;1.60;;
16181;SDS011;8197;51.664;7.114;2024-03-23T16:03:33;13.20;;;1.23;;
16181;SDS011;8197;51.664;7.114;2024-03-23T16:08:36;15.37;;;1.43;;
16181;SDS011;8197;51.664;7.114;2024-03-23T16:13:38;15.00;;;1.30;;
16181;SDS011;8197;51.664;7.114;2024-03-23T16:18:42;13.97;;;1.33;;
16181;SDS011;8197;51.664;7.114;2024-03-23T16:23:46;15.50;;;1.30;;
16181;SDS011;8197;51.664;7.114;2024-03-23T16:28:47;21.67;;;1.80;;
16181;SDS011;8197;51.664;7.114;2024-03-23T16:33:51;16.17;;;1.93;;
16181;SDS011;8197;51.664;7.114;2024-03-23T16:38:53;13.83;;;1.33;;
16181;SDS011;8197;51.664;7.114;2024-03-23T16:43:55;13.10;;;1.43;;
16181;SDS011;8197;51.664;7.114;2024-03-23T16:48:59;18.90;;;1.83;;
16181;SDS011;8197;51.664;7.114;2024-03-23T16:54:01;17.37;;;1.87;;
16181;SDS011;8197;51.664;7.114;2024-03-23T16:59:03;20.20;;;2.10;;
16181;SDS011;8197;51.664;7.114;2024-03-23T17:04:07;20.60;;;2.07;;
16181;SDS011;8197;51.664;7.114;2024-03-23T17:09:09;17.00;;;1.37;;
16181;SDS011;8197;51.664;7.114;2024-03-23T17:14:12;13.80;;;1.20;;
16181;SDS011;8197;51.664;7.114;2024-03-23T17:19:16;14.27;;;1.20;;
16181;SDS011;8197;51.664;7.114;2024-03-23T17:24:19;13.07;;;1.20;;
16181;SDS011;8197;51.664;7.114;2024-03-23T17:29:24;20.83;;;4.27;;
16181;SDS011;8197;51.664;7.114;2024-03-23T17:34:27;12.27;;;1.10;;
16181;SDS011;8197;51.664;7.114;2024-03-23T17:39:29;14.40;;;1.60;;
16181;SDS011;8197;51.664;7.114;2024-03-23T17:44:32;14.60;;;1.17;;
16181;SDS011;8197;51.664;7.114;2024-03-23T17:49:41;14.70;;;1.40;;
16181;SDS011;8197;51.664;7.114;2024-03-23T17:54:43;15.13;;;1.40;;
16181;SDS011;8197;51.664;7.114;2024-03-23T17:59:45;13.50;;;1.30;;
16181;SDS011;8197;51.664;7.114;2024-03-23T18:04:50;14.90;;;1.37;;
16181;SDS011;8197;51.664;7.114;2024-03-23T18:09:52;16.07;;;1.50;;
16181;SDS011;8197;51.664;7.114;2024-03-23T18:14:54;16.10;;;1.93;;
16181;SDS011;8197;51.664;7.114;2024-03-23T18:20:00;14.10;;;2.43;;
16181;SDS011;8197;51.664;7.114;2024-03-23T18:25:05;14.77;;;1.40;;
16181;SDS011;8197;51.664;7.114;2024-03-23T18:30:08;14.07;;;1.30;;
16181;SDS011;8197;51.664;7.114;2024-03-23T18:35:11;12.70;;;1.10;;
16181;SDS011;8197;51.664;7.114;2024-03-23T18:40:13;14.53;;;2.03;;
16181;SDS011;8197;51.664;7.114;2024-03-23T18:45:18;15.00;;;1.60;;
16181;SDS011;8197;51.664;7.114;2024-03-23T18:50:22;16.80;;;2.07;;
16181;SDS011;8197;51.664;7.114;2024-03-23T18:55:24;14.40;;;1.70;;
16181;SDS011;8197;51.664;7.114;2024-03-23T19:00:29;17.93;;;2.00;;
16181;SDS011;8197;51.664;7.114;2024-03-23T19:05:32;14.30;;;1.60;;
16181;SDS011;8197;51.664;7.114;2024-03-23T19:10:35;12.67;;;1.23;;
16181;SDS011;8197;51.664;7.114;2024-03-23T19:15:37;14.23;;;1.53;;
16181;SDS011;8197;51.664;7.114;2024-03-23T19:20:40;14.60;;;1.50;;
16181;SDS011;8197;51.664;7.114;2024-03-23T19:25:42;17.10;;;1.50;;
16181;SDS011;8197;51.664;7.114;2024-03-23T19:30:45;18.07;;;2.27;;
16181;SDS011;8197;51.664;7.114;2024-03-23T19:35:54;18.27;;;2.70;;
16181;SDS011;8197;51.664;7.114;2024-03-23T19:40:57;14.30;;;2.00;;
16181;SDS011;8197;51.664;7.114;2024-03-23T19:46:04;18.73;;;2.60;;
16181;SDS011;8197;51.664;7.114;2024-03-23T19:51:09;16.57;;;1.70;;
16181;SDS011;8197;51.664;7.114;2024-03-23T19:56:11;13.90;;;1.93;;
16181;SDS011;8197;51.664;7.114;2024-03-23T20:01:14;15.73;;;1.93;;
16181;SDS011;8197;51.664;7.114;2024-03-23T20:06:20;14.43;;;1.63;;
16181;SDS011;8197;51.664;7.114;2024-03-23T20:11:24;20.23;;;1.60;;
16181;SDS011;8197;51.664;7.114;2024-03-23T20:16:27;13.37;;;1.50;;
16181;SDS011;8197;51.664;7.114;2024-03-23T20:21:33;18.20;;;2.13;;
16181;SDS011;8197;51.664;7.114;2024-03-23T20:26:46;18.10;;;2.17;;
16181;SDS011;8197;51.664;7.114;2024-03-23T20:31:48;13.77;;;1.90;;
16181;SDS011;8197;51.664;7.114;2024-03-23T20:36:51;16.10;;;2.33;;
16181;SDS011;8197;51.664;7.114;2024-03-23T20:41:53;17.40;;;1.70;;
16181;SDS011;8197;51.664;7.114;2024-03-23T20:46:56;15.73;;;2.13;;
16181;SDS011;8197;51.664;7.114;2024-03-23T20:52:00;17.30;;;3.20;;
16181;SDS011;8197;51.664;7.114;2024-03-23T20:57:03;18.27;;;3.27;;
16181;SDS011;8197;51.664;7.114;2024-03-23T21:02:08;17.83;;;3.20;;
16181;SDS011;8197;51.664;7.114;2024-03-23T21:07:11;14.83;;;2.80;;
16181;SDS011;8197;51.664;7.114;2024-03-23T21:12:15;16.07;;;2.60;;
16181;SDS011;8197;51.664;7.114;2024-03-23T21:17:17;15.80;;;2.90;;
16181;SDS011;8197;51.664;7.114;2024-03-23T21:22:21;22.93;;;3.97;;
16181;SDS011;8197;51.664;7.114;2024-03-23T21:27:23;16.63;;;3.80;;
16181;SDS011;8197;51.664;7.114;2024-03-23T21:32:25;20.37;;;4.10;;
16181;SDS011;8197;51.664;7.114;2024-03-23T21:37:29;17.63;;;4.00;;
16181;SDS011;8197;51.664;7.114;2024-03-23T21:42:33;18.70;;;3.67;;
16181;SDS011;8197;51.664;7.114;2024-03-23T21:47:35;20.23;;;4.47;;
16181;SDS011;8197;51.664;7.114;2024-03-23T21:52:38;15.00;;;3.60;;
16181;SDS011;8197;51.664;7.114;2024-03-23T21:57:46;17.47;;;4.00;;
16181;SDS011;8197;51.664;7.114;2024-03-23T22:02:49;17.00;;;4.53;;
16181;SDS011;8197;51.664;7.114;2024-03-23T22:07:52;20.30;;;4.37;;
16181;SDS011;8197;51.664;7.114;2024-03-23T22:12:54;20.13;;;5.07;;
16181;SDS011;8197;51.664;7.114;2024-03-23T22:17:56;19.20;;;5.20;;
16181;SDS011;8197;51.664;7.114;2024-03-23T22:23:00;21.53;;;5.23;;
16181;SDS011;8197;51.664;7.114;2024-03-23T22:28:03;20.40;;;5.90;;
16181;SDS011;8197;51.664;7.114;2024-03-23T22:33:06;22.40;;;4.77;;
16181;SDS011;8197;51.664;7.114;2024-03-23T22:38:10;23.27;;;5.07;;
16181;SDS011;8197;51.664;7.114;2024-03-23T22:43:14;21.43;;;5.30;;
16181;SDS011;8197;51.664;7.114;2024-03-23T22:48:18;17.20;;;3.53;;
16181;SDS011;8197;51.664;7.114;2024-03-23T22:53:22;19.97;;;4.93;;
16181;SDS011;8197;51.664;7.114;2024-03-23T22:58:24;17.00;;;4.40;;
16181;SDS011;8197;51.664;7.114;2024-03-23T23:03:27;19.00;;;4.80;;
16181;SDS011;8197;51.664;7.114;2024-03-23T23:08:31;19.53;;;4.40;;
16181;SDS011;8197;51.664;7.114;2024-03-23T23:13:33;24.50;;;4.70;;
16181;SDS011;8197;51.664;7.114;2024-03-23T23:18:35;18.77;;;4.53;;
16181;SDS011;8197;51.664;7.114;2024-03-23T23:23:38;19.97;;;4.23;;
16181;SDS011;8197;51.664;7.114;2024-03-23T23:28:40;25.40;;;4.50;;
16181;SDS011;8197;51.664;7.114;2024-03-23T23:33:42;24.07;;;4.63;;
16181;SDS011;8197;51.664;7.114;2024-03-23T23:38:48;16.33;;;3.13;;
16181;SDS011;8197;51.664;7.114;2024-03-23T23:43:54;20.93;;;4.17;;
16181;SDS011;8197;51.664;7.114;2024-03-23T23:48:58;19.70;;;4.63;;
16181;SDS011;8197;51.664;7.114;2024-03-23T23:54:02;22.10;;;3.53;;
16181;SDS011;8197;51.664;7.114;2024-03-23T23:59:04;22.47;;;3.10;;
